createdAt,value
2018-05-31T00:01:49.480Z,64.90
2018-05-31T00:04:16.984Z,64.90
2018-05-31T00:06:45.213Z,65.30
2018-05-31T00:09:12.755Z,65.30
2018-05-31T00:11:40.247Z,65.40
2018-05-31T00:14:07.734Z,65.70
2018-05-31T00:16:35.221Z,65.90
2018-05-31T00:19:02.722Z,66.00
2018-05-31T00:21:30.205Z,66.40
2018-05-31T00:23:58.445Z,66.70
2018-05-31T00:26:25.937Z,67.50
2018-05-31T00:28:54.232Z,67.00
2018-05-31T00:31:21.726Z,66.90
2018-05-31T00:33:49.208Z,67.10
2018-05-31T00:36:16.708Z,67.30
2018-05-31T00:38:44.192Z,67.30
2018-05-31T00:41:11.659Z,67.20
2018-05-31T00:43:39.741Z,67.20
2018-05-31T00:46:07.224Z,67.20
2018-05-31T00:48:34.709Z,67.30
2018-05-31T00:51:03.025Z,67.40
2018-05-31T00:53:30.511Z,67.50
2018-05-31T00:56:09.891Z,67.60
2018-05-31T00:58:37.388Z,67.70
2018-05-31T01:01:05.750Z,68.00
2018-05-31T01:03:33.267Z,68.10
2018-05-31T01:06:01.523Z,68.70
2018-05-31T01:08:29.019Z,68.70
2018-05-31T01:10:56.520Z,68.80
2018-05-31T01:13:23.997Z,68.90
2018-05-31T01:15:52.239Z,69.30
2018-05-31T01:18:19.712Z,69.30
2018-05-31T01:20:47.956Z,69.90
2018-05-31T01:23:15.452Z,69.60
2018-05-31T01:25:42.957Z,69.90
2018-05-31T01:28:11.205Z,70.00
2018-05-31T01:30:38.708Z,70.00
2018-05-31T01:33:06.201Z,70.30
2018-05-31T01:35:33.678Z,70.30
2018-05-31T01:38:12.894Z,70.30
2018-05-31T01:40:40.385Z,70.50
2018-05-31T01:43:07.926Z,70.40
2018-05-31T01:45:35.422Z,70.60
2018-05-31T01:48:02.928Z,70.80
2018-05-31T01:50:30.397Z,71.00
2018-05-31T01:52:57.856Z,71.20
2018-05-31T01:55:25.345Z,71.40
2018-05-31T01:57:53.618Z,72.00
2018-05-31T02:00:21.101Z,71.80
2018-05-31T02:02:48.579Z,72.70
2018-05-31T02:05:16.058Z,72.30
2018-05-31T02:07:43.554Z,72.40
2018-05-31T02:10:11.060Z,72.50
2018-05-31T02:12:38.548Z,72.50
2018-05-31T02:15:06.065Z,72.60
2018-05-31T02:17:33.551Z,72.60
2018-05-31T02:20:01.041Z,72.60
2018-05-31T02:22:28.508Z,72.80
2018-05-31T02:24:56.002Z,72.90
2018-05-31T02:27:23.501Z,72.90
2018-05-31T02:29:51.028Z,73.10
2018-05-31T02:32:19.837Z,73.40
2018-05-31T02:34:47.344Z,73.30
2018-05-31T02:37:15.581Z,73.60
2018-05-31T02:39:43.057Z,73.60
2018-05-31T02:42:10.549Z,73.80
2018-05-31T02:44:38.033Z,73.90
2018-05-31T02:47:05.507Z,74.10
2018-05-31T02:49:32.997Z,74.20
2018-05-31T02:52:00.493Z,74.30
2018-05-31T02:54:27.969Z,74.40
2018-05-31T02:56:55.448Z,74.50
2018-05-31T02:59:22.996Z,74.60
2018-05-31T03:01:50.468Z,74.60
2018-05-31T03:04:17.941Z,74.60
2018-05-31T03:06:45.423Z,74.80
2018-05-31T03:09:12.917Z,74.90
2018-05-31T03:11:40.428Z,75.00
2018-05-31T03:14:07.905Z,75.20
2018-05-31T03:16:36.173Z,75.60
2018-05-31T03:19:04.407Z,75.60
2018-05-31T03:21:31.900Z,75.60
2018-05-31T03:23:59.379Z,75.70
2018-05-31T03:26:27.656Z,76.10
2018-05-31T03:28:55.938Z,76.30
2018-05-31T03:31:24.175Z,76.50
2018-05-31T03:33:51.663Z,76.50
2018-05-31T03:36:19.901Z,76.90
2018-05-31T03:38:47.397Z,76.90
2018-05-31T03:41:15.650Z,77.30
2018-05-31T03:43:43.120Z,77.20
2018-05-31T03:46:10.831Z,77.40
2018-05-31T03:48:38.309Z,77.50
2018-05-31T03:51:05.799Z,77.80
2018-05-31T03:53:33.268Z,78.00
2018-05-31T03:56:00.752Z,78.20
2018-05-31T03:58:28.220Z,78.30
2018-05-31T04:00:55.711Z,78.40
2018-05-31T04:03:23.223Z,78.60
2018-05-31T04:05:50.741Z,78.60
2018-05-31T04:08:18.228Z,78.70
2018-05-31T04:10:45.691Z,78.90
2018-05-31T04:13:13.189Z,78.90
2018-05-31T04:15:40.689Z,79.00
2018-05-31T04:18:08.163Z,78.90
2018-05-31T04:20:36.477Z,78.80
2018-05-31T04:23:03.943Z,78.80
2018-05-31T04:25:31.449Z,78.90
2018-05-31T04:27:58.936Z,79.00
2018-05-31T04:30:26.421Z,79.00
2018-05-31T04:32:53.883Z,79.00
2018-05-31T04:35:22.158Z,78.70
2018-05-31T04:37:49.697Z,78.70
2018-05-31T04:40:17.125Z,78.60
2018-05-31T04:42:45.379Z,78.50
2018-05-31T04:45:12.849Z,78.40
2018-05-31T04:47:40.340Z,78.50
2018-05-31T04:50:07.828Z,78.60
2018-05-31T04:52:35.301Z,78.50
2018-05-31T04:55:02.817Z,78.60
2018-05-31T04:57:30.293Z,79.00
2018-05-31T04:59:57.795Z,79.60
2018-05-31T05:02:25.271Z,79.70
2018-05-31T05:04:53.504Z,79.90
2018-05-31T05:07:20.989Z,79.90
2018-05-31T05:09:48.480Z,79.70
2018-05-31T05:12:15.993Z,79.50
2018-05-31T05:14:43.497Z,79.30
2018-05-31T05:17:10.968Z,79.10
2018-05-31T05:19:38.547Z,79.10
2018-05-31T05:22:06.020Z,79.00
2018-05-31T05:24:33.672Z,79.10
2018-05-31T05:27:01.140Z,79.00
2018-05-31T05:29:28.620Z,79.10
2018-05-31T05:31:56.121Z,78.80
2018-05-31T05:34:23.617Z,78.50
2018-05-31T05:36:51.192Z,78.40
2018-05-31T05:39:19.403Z,78.40
2018-05-31T05:41:46.920Z,78.30
2018-05-31T05:44:14.397Z,78.50
2018-05-31T05:46:41.889Z,78.80
2018-05-31T05:49:09.459Z,78.90
2018-05-31T05:51:36.945Z,78.90
2018-05-31T05:54:04.432Z,78.80
2018-05-31T05:56:31.945Z,78.50
2018-05-31T05:58:59.425Z,78.60
2018-05-31T06:01:26.916Z,78.60
2018-05-31T06:03:54.436Z,78.60
2018-05-31T06:06:21.912Z,78.30
2018-05-31T06:08:49.381Z,78.20
2018-05-31T06:11:16.881Z,78.30
2018-05-31T06:13:44.388Z,78.10
2018-05-31T06:16:11.849Z,78.00
2018-05-31T06:18:39.347Z,78.00
2018-05-31T06:21:07.628Z,77.80
2018-05-31T06:23:35.114Z,77.80
2018-05-31T06:26:02.584Z,77.60
2018-05-31T06:28:30.081Z,77.70
2018-05-31T06:30:57.597Z,77.50
2018-05-31T06:33:25.122Z,77.60
2018-05-31T06:35:53.379Z,77.50
2018-05-31T06:38:20.857Z,77.30
2018-05-31T06:40:49.137Z,77.40
2018-05-31T06:43:17.394Z,77.30
2018-05-31T06:45:44.887Z,77.20
2018-05-31T06:48:12.521Z,77.20
2018-05-31T06:50:40.027Z,77.00
2018-05-31T06:53:07.491Z,76.50
2018-05-31T06:55:34.977Z,76.20
2018-05-31T06:58:02.465Z,75.90
2018-05-31T07:00:29.950Z,75.70
2018-05-31T07:02:57.415Z,75.30
2018-05-31T07:05:24.909Z,75.00
2018-05-31T07:07:52.380Z,74.70
2018-05-31T07:10:19.915Z,74.60
2018-05-31T07:12:47.394Z,74.40
2018-05-31T07:15:14.852Z,73.90
2018-05-31T07:17:43.133Z,73.70
2018-05-31T07:20:10.641Z,73.70
2018-05-31T07:22:38.245Z,73.70
2018-05-31T07:25:05.795Z,73.80
2018-05-31T07:27:33.308Z,74.60
2018-05-31T07:30:00.851Z,73.90
2018-05-31T07:32:28.535Z,74.00
2018-05-31T07:34:56.069Z,74.20
2018-05-31T07:37:24.344Z,74.60
2018-05-31T07:39:51.996Z,74.60
2018-05-31T07:42:19.940Z,74.50
2018-05-31T07:44:47.634Z,74.70
2018-05-31T07:47:15.124Z,74.90
2018-05-31T07:49:42.945Z,74.90
2018-05-31T07:52:10.396Z,74.80
2018-05-31T07:54:37.852Z,74.70
2018-05-31T07:57:05.388Z,74.30
2018-05-31T07:59:32.898Z,74.00
2018-05-31T08:02:00.388Z,73.90
2018-05-31T08:04:28.000Z,73.90
2018-05-31T08:06:55.626Z,73.10
2018-05-31T08:09:23.332Z,72.70
2018-05-31T08:11:50.880Z,73.10
2018-05-31T08:14:18.394Z,73.30
2018-05-31T08:16:45.853Z,72.80
2018-05-31T08:19:13.354Z,72.10
2018-05-31T08:21:40.844Z,71.40
2018-05-31T08:24:08.364Z,71.00
2018-05-31T08:26:35.862Z,70.80
2018-05-31T08:29:03.323Z,71.00
2018-05-31T08:31:31.571Z,70.20
2018-05-31T08:33:59.848Z,70.60
2018-05-31T08:36:27.307Z,69.80
2018-05-31T08:38:54.840Z,69.20
2018-05-31T08:41:22.357Z,69.10
2018-05-31T08:43:49.831Z,69.30
2018-05-31T08:46:17.340Z,69.60
2018-05-31T08:48:44.816Z,69.80
2018-05-31T08:51:12.300Z,69.70
2018-05-31T08:53:40.536Z,69.20
2018-05-31T08:56:08.021Z,69.10
2018-05-31T08:58:35.519Z,68.90
2018-05-31T09:01:03.019Z,68.80
2018-05-31T09:03:30.480Z,68.60
2018-05-31T09:05:57.943Z,68.30
2018-05-31T09:08:25.432Z,67.90
2018-05-31T09:10:53.661Z,68.00
2018-05-31T09:13:21.124Z,68.00
2018-05-31T09:15:48.609Z,68.20
2018-05-31T09:18:16.096Z,68.30
2018-05-31T09:20:43.572Z,68.90
2018-05-31T09:23:11.056Z,69.60
2018-05-31T09:25:38.544Z,69.90
2018-05-31T09:28:06.868Z,69.00
2018-05-31T09:30:34.357Z,69.00
2018-05-31T09:33:01.847Z,69.10
2018-05-31T09:35:29.321Z,69.30
2018-05-31T09:37:56.794Z,69.20
2018-05-31T09:40:24.297Z,69.60
2018-05-31T09:42:51.782Z,69.90
2018-05-31T09:45:20.032Z,70.10
2018-05-31T09:47:47.536Z,70.00
2018-05-31T09:50:14.996Z,70.20
2018-05-31T09:52:42.492Z,69.80
2018-05-31T09:55:09.986Z,68.90
2018-05-31T09:57:37.461Z,68.60
2018-05-31T10:00:05.058Z,68.20
2018-05-31T10:02:32.580Z,67.40
2018-05-31T10:05:00.057Z,66.10
2018-05-31T10:07:27.561Z,66.00
2018-05-31T10:09:55.073Z,65.50
2018-05-31T10:12:22.588Z,65.10
2018-05-31T10:14:50.076Z,64.70
2018-05-31T10:17:17.545Z,64.30
2018-05-31T10:19:45.044Z,64.00
2018-05-31T10:22:12.536Z,63.90
2018-05-31T10:24:40.810Z,64.20
2018-05-31T10:27:08.308Z,64.20
2018-05-31T10:29:35.792Z,64.40
2018-05-31T10:32:03.276Z,64.80
2018-05-31T10:34:30.744Z,64.70
2018-05-31T10:36:58.219Z,64.60
2018-05-31T10:39:25.808Z,64.50
2018-05-31T10:41:53.201Z,63.90
2018-05-31T10:44:20.668Z,63.10
2018-05-31T10:46:48.120Z,62.70
2018-05-31T10:49:15.625Z,62.80
2018-05-31T10:51:43.122Z,62.60
2018-05-31T10:54:10.635Z,63.10
2018-05-31T10:56:38.125Z,62.70
2018-05-31T10:59:05.711Z,61.90
2018-05-31T11:01:33.193Z,61.50
2018-05-31T11:04:00.685Z,61.50
2018-05-31T11:06:28.145Z,61.00
2018-05-31T11:08:55.638Z,61.00
2018-05-31T11:11:23.099Z,60.60
2018-05-31T11:13:50.572Z,61.10
2018-05-31T11:16:18.054Z,60.70
2018-05-31T11:18:46.290Z,60.70
2018-05-31T11:21:13.768Z,60.70
2018-05-31T11:23:41.224Z,60.50
2018-05-31T11:26:08.703Z,60.20
2018-05-31T11:28:37.157Z,60.00
2018-05-31T11:31:04.620Z,60.30
2018-05-31T11:33:32.089Z,59.30
2018-05-31T11:35:59.576Z,58.80
2018-05-31T11:38:27.820Z,57.70
2018-05-31T11:40:55.267Z,57.70
2018-05-31T11:43:22.773Z,57.00
2018-05-31T11:45:50.286Z,56.60
2018-05-31T11:48:17.799Z,56.20
2018-05-31T11:50:45.375Z,56.10
2018-05-31T11:53:12.855Z,56.10
2018-05-31T11:55:40.325Z,55.80
2018-05-31T11:58:07.815Z,55.40
2018-05-31T12:00:35.303Z,54.90
2018-05-31T12:03:02.776Z,54.60
2018-05-31T12:05:30.238Z,54.80
2018-05-31T12:07:57.833Z,55.10
2018-05-31T12:10:26.091Z,54.50
2018-05-31T12:12:53.594Z,54.40
2018-05-31T12:15:21.091Z,54.10
2018-05-31T12:17:48.565Z,54.10
2018-05-31T12:20:16.063Z,53.10
2018-05-31T12:22:44.318Z,53.70
2018-05-31T12:25:11.781Z,53.70
2018-05-31T12:27:39.261Z,53.20
2018-05-31T12:30:07.537Z,53.30
2018-05-31T12:32:35.797Z,53.60
2018-05-31T12:35:03.267Z,53.60
2018-05-31T12:37:31.858Z,53.60
2018-05-31T12:39:59.356Z,53.50
2018-05-31T12:42:26.875Z,53.30
2018-05-31T12:44:55.125Z,53.10
2018-05-31T12:47:22.641Z,53.00
2018-05-31T12:49:50.363Z,52.80
2018-05-31T12:52:17.880Z,53.00
2018-05-31T12:54:45.359Z,53.30
2018-05-31T12:57:13.614Z,53.60
2018-05-31T12:59:41.141Z,53.60
2018-05-31T13:02:08.595Z,53.50
2018-05-31T13:04:36.841Z,52.70
2018-05-31T13:07:04.305Z,52.70
2018-05-31T13:09:31.821Z,52.30
2018-05-31T13:11:59.281Z,52.30
2018-05-31T13:14:26.733Z,52.20
2018-05-31T13:16:54.280Z,52.30
2018-05-31T13:19:21.861Z,53.00
2018-05-31T13:21:49.336Z,53.50
2018-05-31T13:24:16.833Z,54.00
2018-05-31T13:26:45.069Z,54.50
2018-05-31T13:29:12.639Z,54.50
2018-05-31T13:31:40.199Z,54.00
2018-05-31T13:34:07.915Z,53.40
2018-05-31T13:36:35.424Z,53.00
2018-05-31T13:39:02.904Z,53.00
2018-05-31T13:41:31.187Z,52.60
2018-05-31T13:43:59.462Z,51.40
2018-05-31T13:46:27.681Z,49.50
2018-05-31T13:48:55.236Z,49.40
2018-05-31T13:51:22.734Z,47.30
2018-05-31T13:53:50.193Z,45.50
2018-05-31T13:56:17.683Z,44.80
2018-05-31T13:58:45.943Z,45.10
2018-05-31T14:01:13.411Z,45.00
2018-05-31T14:03:41.640Z,45.20
2018-05-31T14:06:09.121Z,45.20
2018-05-31T14:08:36.738Z,45.30
2018-05-31T14:11:04.383Z,44.50
2018-05-31T14:13:31.952Z,44.30
2018-05-31T14:15:59.404Z,45.00
2018-05-31T14:18:27.202Z,45.20
2018-05-31T14:20:54.726Z,44.60
2018-05-31T14:23:22.205Z,44.40
2018-05-31T14:25:49.703Z,44.50
2018-05-31T14:28:17.186Z,44.60
2018-05-31T14:30:45.418Z,45.60
2018-05-31T14:33:12.895Z,45.50
2018-05-31T14:35:40.398Z,46.20
2018-05-31T14:38:07.931Z,46.90
2018-05-31T14:40:35.578Z,47.00
2018-05-31T14:43:03.225Z,47.90
2018-05-31T14:45:30.969Z,48.40
2018-05-31T14:47:58.504Z,49.00
2018-05-31T14:50:26.730Z,48.50
2018-05-31T14:52:54.306Z,48.50
2018-05-31T14:55:21.998Z,48.50
2018-05-31T14:57:50.305Z,49.00
2018-05-31T15:00:17.911Z,49.00
2018-05-31T15:02:45.463Z,49.50
2018-05-31T15:05:12.968Z,49.70
2018-05-31T15:07:41.196Z,50.20
2018-05-31T15:10:08.942Z,50.20
2018-05-31T15:12:37.430Z,50.30
2018-05-31T15:15:04.884Z,50.30
2018-05-31T15:17:32.369Z,49.60
2018-05-31T15:19:59.957Z,46.70
2018-05-31T15:22:28.180Z,41.20
2018-05-31T15:24:55.668Z,41.10
2018-05-31T15:27:23.148Z,40.50
2018-05-31T15:29:50.807Z,38.00
2018-05-31T15:32:19.267Z,35.90
2018-05-31T15:34:46.995Z,35.90
2018-05-31T15:37:14.648Z,36.90
2018-05-31T15:39:42.143Z,37.40
2018-05-31T15:42:09.646Z,37.40
2018-05-31T15:44:37.097Z,38.10
2018-05-31T15:47:05.357Z,40.00
2018-05-31T15:49:32.862Z,40.00
2018-05-31T15:52:00.329Z,41.20
2018-05-31T15:54:27.821Z,41.90
2018-05-31T15:56:55.320Z,42.00
2018-05-31T15:59:24.388Z,42.40
2018-05-31T16:01:51.869Z,42.40
2018-05-31T16:04:20.114Z,42.60
2018-05-31T16:06:47.804Z,42.60
2018-05-31T16:09:16.089Z,42.90
2018-05-31T16:11:44.308Z,43.50
2018-05-31T16:14:11.816Z,43.40
2018-05-31T16:16:39.299Z,43.80
2018-05-31T16:19:06.799Z,44.00
2018-05-31T16:21:34.268Z,43.70
2018-05-31T16:24:01.750Z,43.30
2018-05-31T16:26:29.231Z,43.10
2018-05-31T16:28:56.733Z,42.80
2018-05-31T16:31:24.194Z,42.50
2018-05-31T16:33:51.650Z,42.10
2018-05-31T16:36:19.128Z,42.70
2018-05-31T16:38:46.606Z,42.90
2018-05-31T16:41:14.832Z,43.60
2018-05-31T16:43:42.308Z,43.50
2018-05-31T16:46:10.171Z,44.10
2018-05-31T16:48:37.879Z,44.60
2018-05-31T16:51:06.103Z,45.10
2018-05-31T16:53:33.761Z,45.10
2018-05-31T16:56:01.413Z,45.70
2018-05-31T16:58:28.941Z,45.80
2018-05-31T17:00:57.243Z,45.90
2018-05-31T17:03:24.805Z,45.90
2018-05-31T17:05:52.328Z,46.20
2018-05-31T17:08:19.804Z,46.50
2018-05-31T17:10:47.290Z,46.60
2018-05-31T17:13:14.744Z,46.70
2018-05-31T17:15:42.229Z,47.00
2018-05-31T17:18:09.700Z,47.20
2018-05-31T17:20:37.207Z,47.70
2018-05-31T17:23:04.680Z,48.00
2018-05-31T17:25:32.144Z,48.40
2018-05-31T17:27:59.635Z,48.50
2018-05-31T17:30:27.403Z,47.40
2018-05-31T17:32:54.927Z,45.80
2018-05-31T17:35:22.409Z,45.70
2018-05-31T17:37:49.883Z,46.20
2018-05-31T17:40:17.398Z,46.60
2018-05-31T17:42:44.880Z,47.10
2018-05-31T17:45:12.378Z,47.60
2018-05-31T17:47:40.665Z,47.10
2018-05-31T17:50:08.904Z,47.10
2018-05-31T17:52:36.361Z,47.00
2018-05-31T17:55:03.848Z,46.40
2018-05-31T17:57:32.064Z,42.80
2018-05-31T17:59:59.591Z,42.70
2018-05-31T18:02:27.832Z,40.20
2018-05-31T18:04:55.348Z,40.10
2018-05-31T18:07:22.828Z,39.10
2018-05-31T18:09:50.305Z,38.60
2018-05-31T18:12:18.142Z,39.20
2018-05-31T18:14:46.420Z,42.00
2018-05-31T18:17:13.929Z,42.00
2018-05-31T18:19:41.664Z,43.80
2018-05-31T18:22:09.389Z,45.30
2018-05-31T18:24:36.858Z,46.40
2018-05-31T18:27:04.431Z,47.20
2018-05-31T18:29:31.979Z,48.20
2018-05-31T18:31:59.493Z,48.80
2018-05-31T18:34:26.953Z,49.60
2018-05-31T18:36:55.281Z,50.10
2018-05-31T18:39:22.772Z,51.20
2018-05-31T18:41:50.224Z,51.00
2018-05-31T18:44:18.008Z,51.40
2018-05-31T18:46:45.488Z,51.80
2018-05-31T18:49:12.977Z,52.00
2018-05-31T18:51:40.441Z,52.40
2018-05-31T18:54:07.920Z,52.60
2018-05-31T18:56:35.409Z,52.80
2018-05-31T18:59:02.934Z,53.20
2018-05-31T19:01:30.507Z,53.50
2018-05-31T19:03:58.318Z,53.90
2018-05-31T19:06:26.632Z,54.60
2018-05-31T19:08:54.214Z,54.60
2018-05-31T19:11:23.325Z,54.90
2018-05-31T19:13:58.237Z,54.90
2018-05-31T19:16:26.176Z,54.90
2018-05-31T19:18:59.577Z,55.20
2018-05-31T19:21:27.871Z,55.50
2018-05-31T19:23:55.710Z,55.90
2018-05-31T19:26:23.264Z,55.90
2018-05-31T19:28:51.958Z,56.00
2018-05-31T19:31:19.787Z,56.00
2018-05-31T19:33:48.180Z,56.50
2018-05-31T19:36:22.301Z,56.60
2018-05-31T19:38:50.122Z,56.60
2018-05-31T19:41:17.954Z,56.70
2018-05-31T19:43:51.306Z,57.00
2018-05-31T19:46:19.117Z,57.30
2018-05-31T19:48:46.611Z,57.60
2018-05-31T19:54:15.395Z,58.30
2018-05-31T19:56:42.897Z,58.40
2018-05-31T19:59:15.973Z,58.70
2018-05-31T20:01:49.880Z,59.50
2018-05-31T20:04:17.521Z,59.10
2018-05-31T20:06:45.053Z,59.40
2018-05-31T20:09:13.262Z,59.60
2018-05-31T20:11:40.830Z,59.80
2018-05-31T20:14:08.554Z,60.10
2018-05-31T20:16:36.135Z,60.50
2018-05-31T20:19:03.684Z,60.80
2018-05-31T20:21:31.317Z,61.30
2018-05-31T20:23:58.938Z,61.60
2018-05-31T20:26:26.760Z,62.00
2018-05-31T20:28:54.487Z,62.30
2018-05-31T20:31:22.121Z,62.40
2018-05-31T20:33:49.742Z,62.70
2018-05-31T20:36:17.992Z,63.30
2018-05-31T20:38:45.646Z,63.30
2018-05-31T20:41:13.321Z,63.60
2018-05-31T20:43:41.603Z,64.40
2018-05-31T20:46:09.252Z,64.40
2018-05-31T20:48:36.752Z,64.80
2018-05-31T20:51:05.302Z,65.20
2018-05-31T20:53:33.042Z,65.10
2018-05-31T20:56:00.528Z,65.30
2018-05-31T20:58:27.991Z,65.80
2018-05-31T21:00:55.536Z,65.90
2018-05-31T21:03:22.992Z,66.30
2018-05-31T21:05:50.458Z,66.70
2018-05-31T21:08:18.193Z,66.80
2018-05-31T21:10:45.882Z,66.90
2018-05-31T21:13:13.407Z,67.00
2018-05-31T21:15:40.991Z,67.90
2018-05-31T21:18:09.541Z,67.70
2018-05-31T21:20:37.054Z,67.70
2018-05-31T21:23:04.649Z,68.10
2018-05-31T21:25:32.920Z,69.20
2018-05-31T21:28:01.234Z,69.30
2018-05-31T21:30:28.851Z,69.20
2018-05-31T21:32:57.124Z,69.50
2018-05-31T21:35:25.403Z,69.70
2018-05-31T21:37:52.816Z,69.70
2018-05-31T21:40:20.426Z,70.10
2018-05-31T21:42:48.726Z,70.90
2018-05-31T21:45:16.159Z,70.90
2018-05-31T21:47:44.520Z,71.10
2018-05-31T21:50:12.036Z,71.20
2018-05-31T21:52:39.572Z,71.00
2018-05-31T21:55:07.009Z,71.30
2018-05-31T21:57:34.501Z,71.70
2018-05-31T22:00:02.618Z,72.10
2018-05-31T22:02:30.103Z,72.40
2018-05-31T22:04:58.328Z,72.60
2018-05-31T22:07:25.862Z,72.50
2018-05-31T22:09:53.325Z,72.50
2018-05-31T22:12:20.825Z,72.80
2018-05-31T22:14:48.300Z,73.30
2018-05-31T22:17:15.756Z,73.50
2018-05-31T22:19:43.245Z,73.80
2018-05-31T22:22:11.513Z,73.90
2018-05-31T22:24:39.776Z,74.40
2018-05-31T22:27:07.248Z,74.40
2018-05-31T22:29:34.729Z,74.50
2018-05-31T22:32:02.191Z,74.40
2018-05-31T22:34:29.701Z,74.50
2018-05-31T22:36:57.152Z,74.70
2018-05-31T22:39:24.641Z,74.90
2018-05-31T22:41:52.863Z,75.60
2018-05-31T22:44:20.372Z,75.60
2018-05-31T22:46:47.863Z,75.90
2018-05-31T22:49:15.361Z,76.00
2018-05-31T22:51:42.860Z,76.20
2018-05-31T22:54:10.323Z,76.40
2018-05-31T22:56:37.802Z,76.60
2018-05-31T22:59:05.268Z,76.70
2018-05-31T23:01:32.748Z,76.60
2018-05-31T23:04:00.221Z,76.70
2018-05-31T23:06:27.710Z,76.60
2018-05-31T23:08:55.224Z,76.90
2018-05-31T23:11:22.697Z,77.10
2018-05-31T23:13:50.169Z,77.30
2018-05-31T23:16:17.656Z,77.20
2018-05-31T23:18:45.203Z,77.40
2018-05-31T23:21:13.464Z,77.90
2018-05-31T23:23:40.933Z,78.00
2018-05-31T23:26:09.181Z,78.40
2018-05-31T23:28:36.685Z,78.40
2018-05-31T23:31:04.944Z,78.40
2018-05-31T23:33:33.184Z,78.40
2018-05-31T23:36:00.673Z,78.30
2018-05-31T23:38:28.138Z,78.30
2018-05-31T23:40:56.457Z,78.80
2018-05-31T23:43:23.915Z,78.70
2018-05-31T23:45:51.394Z,79.00
2018-05-31T23:48:18.880Z,79.10
2018-05-31T23:50:46.357Z,79.50
2018-05-31T23:53:13.841Z,79.60
2018-05-31T23:55:42.091Z,79.80
2018-05-31T23:58:09.576Z,79.90
